Weather reports worldwide

Advertisment
Melsom, Norway (1481): temperature & dewpoint: 17.03.2019 10:00:00 - 23.03.2019 10:00:00 (CET)Melsom, Norway (1481): wind speed & gusts: 17.03.2019 10:00:00 - 23.03.2019 10:00:00 (CET)Melsom, Norway (1481): wind direction: 17.03.2019 10:00:00 - 23.03.2019 10:00:00 (CET)Melsom, Norway (1481): reduced air pressure: 17.03.2019 10:00:00 - 23.03.2019 10:00:00 (CET)Melsom, Norway (1481): precipitation: 17.03.2019 10:00:00 - 23.03.2019 10:00:00 (CET)
Date & Time tt [°C] td [°C] ff [km/h] ff [kn] fx [km/h] fx [kn] dd ppp [hPa] rr [mm]
23.03.2019 10:00:00 7,7 -1,0 12 7 35 19 WSW 1015,8 0,0
23.03.2019 09:00:00 6,9 1,4 11 6 24 13 SW 1015,6 0,0
23.03.2019 08:00:00 5,9 1,6 10 6 24 13 SSW 1015,3 0,0
23.03.2019 07:00:00 5,1 2,6 11 6 - - SSW 1014,6 0,0
23.03.2019 06:00:00 5,3 4,0 11 6 21 11 SSW 1013,8 0,0
23.03.2019 05:00:00 5,8 4,6 13 7 26 14 SW 1013,7 0,0
23.03.2019 04:00:00 6,3 5,1 11 6 29 16 SW 1013,5 0,0
23.03.2019 03:00:00 6,4 5,5 15 8 31 17 SW 1013,5 0,0
23.03.2019 02:00:00 6,2 5,6 14 7 40 22 SW 1013,9 0,0
23.03.2019 01:00:00 6,1 5,5 23 12 - - SSW 1014,5 0,0
23.03.2019 00:00:00 6,0 5,3 17 9 48 26 SW 1015,5 0,0
22.03.2019 23:00:00 5,8 4,9 19 11 49 26 SSW 1016,3 0,0
22.03.2019 22:00:00 5,6 4,9 16 9 40 22 SSW 1017,6 0,1
22.03.2019 21:00:00 5,7 4,8 20 11 42 23 SSW 1018,8 0,2
22.03.2019 20:00:00 5,4 4,8 17 9 33 18 SSW 1020,2 0,5
22.03.2019 19:00:00 4,8 4,2 15 8 - - SSW 1021,6 0,5
22.03.2019 18:00:00 4,6 4,0 14 8 34 18 SSW 1022,4 0,0
22.03.2019 17:00:00 4,3 3,0 14 7 37 20 SSW 1023,2 0,0
22.03.2019 16:00:00 4,6 3,6 16 8 38 20 SSW 1024,7 0,0
22.03.2019 15:00:00 5,3 3,8 16 8 37 20 S 1025,7 0,0
22.03.2019 14:00:00 5,0 3,5 16 9 31 17 S 1026,8 0,0
22.03.2019 13:00:00 5,3 3,8 16 9 - - S 1028,1 0,0
22.03.2019 12:00:00 4,9 3,7 16 9 35 19 S 1029,0 0,0
22.03.2019 11:00:00 6,3 2,0 9 5 16 9 S 1029,2 0,0
22.03.2019 10:00:00 4,8 0,9 5 3 16 9 S 1030,3 0,0
22.03.2019 09:00:00 2,4 -0,8 1 1 9 5 WNW 1030,9 0,0
22.03.2019 08:00:00 -0,1 -2,8 2 1 5 3 NE 1031,5 0,0
22.03.2019 07:00:00 -1,5 -3,0 0 0 - - NNE 1031,4 0,0
22.03.2019 06:00:00 -1,7 -3,2 4 2 6 3 NNW 1030,6 0,0
22.03.2019 05:00:00 -1,1 -3,3 2 1 5 3 NNE 1030,7 0,0
22.03.2019 04:00:00 -0,9 -2,8 5 3 9 5 N 1030,5 0,0
22.03.2019 03:00:00 -0,3 -3,7 0 0 5 3 N 1030,2 0,0
22.03.2019 02:00:00 1,3 -3,7 1 1 4 2 N 1030,7 0,0
22.03.2019 01:00:00 2,6 -4,1 2 1 - - NNW 1030,3 0,0
22.03.2019 00:00:00 4,5 -4,7 4 2 14 8 NNE 1029,5 0,0
21.03.2019 23:00:00 5,5 -4,3 4 2 15 8 NNW 1028,5 0,0
21.03.2019 22:00:00 6,7 -5,0 4 2 - - NNW 1027,0 0,0
21.03.2019 21:00:00 7,9 -4,2 11 6 30 16 NNW 1026,3 0,0
21.03.2019 20:00:00 8,9 -3,3 6 4 29 16 NNW 1024,9 0,0
21.03.2019 19:00:00 11,2 -3,6 14 8 - - WNW 1022,9 0,0
21.03.2019 18:00:00 12,9 -3,8 10 6 31 17 WNW 1021,4 0,0
21.03.2019 17:00:00 14,9 0,7 14 8 32 17 WNW 1019,6 0,0
21.03.2019 16:00:00 15,9 3,0 11 6 37 20 W 1018,4 0,0
21.03.2019 15:00:00 13,3 6,2 9 5 20 11 S 1017,6 0,0
21.03.2019 14:00:00 14,3 6,4 10 5 22 12 S 1017,9 0,0
21.03.2019 13:00:00 12,8 6,8 9 5 - - SSW 1017,7 0,0
21.03.2019 12:00:00 12,3 6,2 12 6 29 15 SW 1017,3 0,0
21.03.2019 11:00:00 11,4 6,3 10 5 27 15 SW 1017,2 0,0
21.03.2019 10:00:00 9,4 6,5 12 7 29 15 SSW 1017,0 0,0
21.03.2019 09:00:00 7,5 5,8 13 7 35 19 SW 1016,7 0,0
21.03.2019 08:00:00 6,6 5,6 18 10 - - SSW 1016,2 0,0
21.03.2019 07:00:00 6,1 5,4 11 6 - - SW 1016,7 0,0
21.03.2019 06:00:00 6,1 5,4 15 8 35 19 SSW 1016,6 0,0
21.03.2019 05:00:00 6,1 5,2 16 9 35 19 SSW 1017,0 0,0
21.03.2019 04:00:00 5,7 4,5 17 9 34 18 SSW 1017,4 0,0
21.03.2019 03:00:00 5,7 3,7 13 7 26 14 SSW 1018,5 0,0
21.03.2019 02:00:00 6,4 1,9 11 6 23 12 S 1019,4 0,0
21.03.2019 01:00:00 7,3 1,0 8 4 - - S 1020,2 0,0
21.03.2019 00:00:00 6,8 -0,9 4 2 30 16 S 1021,1 0,0
20.03.2019 23:00:00 7,0 -0,9 12 6 24 13 SW 1021,1 0,0
20.03.2019 22:00:00 8,4 -1,9 11 6 28 15 WSW 1021,7 0,0
20.03.2019 21:00:00 8,6 -1,5 11 6 24 13 W 1021,9 0,0
20.03.2019 20:00:00 8,2 -1,3 9 5 19 10 SW 1022,1 0,0
20.03.2019 19:00:00 9,4 -2,2 9 5 - - WSW 1021,9 0,0
20.03.2019 18:00:00 10,8 -1,2 4 2 21 11 S 1021,3 0,0
20.03.2019 17:00:00 12,3 -1,9 9 5 18 10 WSW 1020,6 0,0
20.03.2019 16:00:00 12,7 -1,9 8 4 21 11 W 1020,1 0,0
20.03.2019 15:00:00 11,9 0,4 9 5 24 13 SW 1019,8 0,0
20.03.2019 14:00:00 11,7 1,9 14 8 28 15 S 1019,3 0,0
20.03.2019 13:00:00 12,0 -0,5 11 6 - - WSW 1019,5 0,0
20.03.2019 12:00:00 10,6 -0,8 16 9 33 18 WSW 1018,9 0,0
20.03.2019 11:00:00 10,5 1,4 11 6 28 15 WSW 1018,2 0,0
20.03.2019 10:00:00 8,7 1,9 8 5 18 10 W 1017,8 0,0
20.03.2019 09:00:00 6,5 2,4 8 5 19 10 WSW 1016,9 0,0
20.03.2019 08:00:00 4,8 3,2 6 3 23 12 SW 1016,5 0,0
20.03.2019 07:00:00 3,9 2,9 9 5 - - SW 1015,8 0,0
20.03.2019 06:00:00 4,6 3,3 11 6 24 13 SW 1015,7 0,0
20.03.2019 05:00:00 5,2 3,5 13 7 29 16 SSW 1015,8 0,0
20.03.2019 04:00:00 4,9 3,6 13 7 43 23 SW 1015,9 0,0
20.03.2019 03:00:00 4,8 3,0 17 9 35 19 SSW 1016,4 0,0
20.03.2019 02:00:00 4,3 1,7 11 6 25 14 SSW 1017,6 0,0
20.03.2019 01:00:00 4,1 -0,7 14 8 - - SSW 1018,2 0,0
20.03.2019 00:00:00 4,3 -3,7 10 5 26 14 SSW 1019,1 0,0
19.03.2019 23:00:00 3,4 -3,2 11 6 21 11 SW 1019,5 0,0
19.03.2019 22:00:00 3,0 0,9 9 5 16 9 S 1019,7 0,0
19.03.2019 21:00:00 3,1 0,8 8 4 16 9 SSW 1020,3 0,0
19.03.2019 20:00:00 2,8 -0,1 8 4 15 8 SSW 1021,2 0,0
19.03.2019 19:00:00 3,2 -0,1 8 4 - - SSW 1021,2 0,0
19.03.2019 18:00:00 3,8 -0,6 10 6 19 10 S 1021,2 0,0
19.03.2019 17:00:00 5,9 -3,7 6 4 18 10 SSW 1021,2 0,0
19.03.2019 16:00:00 5,9 -1,7 9 5 23 12 S 1021,4 0,0
19.03.2019 15:00:00 7,0 -6,6 9 5 26 14 SW 1021,4 0,0
19.03.2019 14:00:00 6,9 -6,0 11 6 26 14 S 1021,6 0,0
19.03.2019 13:00:00 7,2 -5,5 10 5 - - S 1022,0 0,0
19.03.2019 12:00:00 7,4 -8,6 4 2 13 7 SE 1021,9 0,0
19.03.2019 11:00:00 6,3 -9,5 4 2 8 5 W 1022,0 0,0
19.03.2019 10:00:00 4,7 -8,3 3 2 7 4 NNW 1021,7 0,0
19.03.2019 09:00:00 2,3 -8,1 4 2 6 4 N 1021,2 0,0
19.03.2019 08:00:00 -0,8 -6,5 3 2 6 3 - 1020,7 0,0
19.03.2019 07:00:00 -2,9 -7,1 3 1 - - NNW 1020,2 0,0
19.03.2019 06:00:00 -1,7 -7,3 4 2 4 2 NNE 1019,4 0,0
19.03.2019 05:00:00 -1,6 -8,0 3 2 12 7 WNW 1018,8 0,0
19.03.2019 04:00:00 -0,2 -8,1 2 1 16 9 NNW 1018,0 0,0
19.03.2019 03:00:00 -0,5 -7,1 5 3 13 7 NNW 1017,4 0,0
19.03.2019 02:00:00 -0,2 -7,5 4 2 11 6 NW 1016,6 0,0
19.03.2019 01:00:00 0,3 -8,4 3 2 - - N 1016,0 0,0
19.03.2019 00:00:00 1,1 -8,4 5 3 12 6 WNW 1015,1 0,0
18.03.2019 23:00:00 1,6 -7,7 4 2 13 7 NNW 1014,2 0,0
18.03.2019 22:00:00 0,9 -7,1 2 1 19 10 WSW 1013,0 0,0
18.03.2019 21:00:00 2,4 -6,7 9 5 34 18 N 1011,6 0,0
18.03.2019 20:00:00 3,7 -7,7 11 6 23 13 N 1010,5 0,0
18.03.2019 19:00:00 4,0 -7,4 9 5 - - N 1009,2 0,0
18.03.2019 18:00:00 5,3 -7,5 16 9 39 21 N 1007,5 0,0
18.03.2019 17:00:00 6,6 -6,3 20 11 43 23 N 1005,6 0,0
18.03.2019 16:00:00 6,9 -4,2 12 6 37 20 N 1004,2 0,0
18.03.2019 15:00:00 7,8 -4,0 20 11 41 22 N 1002,7 0,0
18.03.2019 14:00:00 7,3 -3,8 22 12 43 23 N 1001,4 0,0
18.03.2019 13:00:00 6,6 -3,3 18 10 - - - 1000,3 0,0
18.03.2019 12:00:00 6,2 -3,7 22 12 45 25 N 998,9 0,0
18.03.2019 11:00:00 5,4 -3,4 21 12 45 24 N 997,6 0,0
18.03.2019 10:00:00 4,5 -4,7 21 11 48 26 N 996,0 0,0
18.03.2019 09:00:00 3,4 -5,0 22 12 49 27 N 994,4 0,0
18.03.2019 08:00:00 3,0 -5,1 20 11 48 26 N 993,0 0,0
18.03.2019 07:00:00 2,5 -4,9 19 10 - - N 991,2 0,0
18.03.2019 06:00:00 2,4 -4,1 20 11 42 23 N 989,7 0,0
18.03.2019 05:00:00 2,2 -3,3 21 11 45 24 N 988,1 0,0
18.03.2019 04:00:00 2,1 -2,8 25 14 44 24 N 986,1 0,0
18.03.2019 03:00:00 1,7 -0,9 22 12 44 24 N 984,8 0,0
18.03.2019 02:00:00 2,5 -0,6 21 11 43 23 N 982,8 0,0
18.03.2019 01:00:00 2,2 0,3 15 8 - - N 981,1 0,4
18.03.2019 00:00:00 2,1 0,6 13 7 29 16 N 979,6 0,2
17.03.2019 23:00:00 2,1 0,8 5 3 12 7 NNW 978,3 0,1
17.03.2019 22:00:00 2,4 0,3 4 2 13 7 NW 977,1 0,2
17.03.2019 21:00:00 3,1 -0,3 6 4 19 10 WSW 976,0 0,0
17.03.2019 20:00:00 2,6 0,2 4 2 11 6 SW 975,0 0,0
17.03.2019 19:00:00 3,7 -0,5 4 2 - - SSW 974,0 0,0
17.03.2019 18:00:00 4,3 0,1 11 6 - - SW 973,3 0,0
17.03.2019 17:00:00 4,5 0,5 13 7 37 20 SW 972,6 0,0
17.03.2019 16:00:00 5,4 1,7 16 9 46 25 SSW 971,9 0,0
17.03.2019 15:00:00 6,0 2,1 22 12 44 24 SSW 971,7 0,0
17.03.2019 14:00:00 5,2 2,2 23 13 46 25 SSW 971,7 0,0
17.03.2019 13:00:00 4,6 2,3 20 11 - - SSW 971,7 0,2
17.03.2019 12:00:00 3,8 2,3 25 13 65 35 S 972,1 0,7
17.03.2019 11:00:00 4,7 1,9 31 17 59 32 S 972,9 0,2
17.03.2019 10:00:00 5,0 2,0 25 13 48 26 S 974,2 0,2

tt = temperature
td = dewpoint
ff = wind speed
fx = gusts
dd = wind direction
ppp = reduced air pressure
rr = precipitation

Next stations